EDDEEDDM

Guest
Details From EDDE - Erfurt
To EDDM - Muenchen Franz-josef Strauss
Flight Number -
Tags Generated
Created
Modified
Stats Distance 162 nm / 299 km
Max Altitude 0 ft / 0 m
Waypoints 2
Social Downloads 1
Likes 0
Share VATSIM

Download

Looking for another format? Having issues loading an existing format? Contact us
Advertisement - Login to hide

Notes

Generated

Route

EDDE EDDM

ID Type Via Altitude Latitude Longitude Leg Dist Tot Dist Heading (true) Name
O EDDE APT - 0 ft / 0 m 50.98148˚ 10.93975˚ - 0 nm - -
O EDDM APT - 0 ft / 0 m 48.34069˚ 11.75108˚ 161 nm 161 nm 168° / 169° -

Altitude Profile

Advertisement - Login to hide

EDDE

Details ICAO EDDE (ERF)
Name Erfurt
Region Germany - Civil
Timezone Europe/Berlin (UTC+2.0)
Stats Elevation 1,035 ft / 315 m (AMSL)
Location 50.979808° 10.958105°
Runways 1
Magnetic Variation 3.081° E

METAR

EDDE 201920Z 07005KT 040V100 CAVOK 16/05 Q1021 NOSIG

Decode

TAF

TAF TAF EDDE 201700Z 2018/2118 06006KT CAVOK BECMG 2107/2109 07011KT TEMPO 2114/2115 07015G25KT

Decode

Departure Runways

ID Width Length Bearing (true) Bearing (mag) Surface Threshold Offset Overrun Length
10 164 ft / 50 m 8,523 ft / 2,598 m 98.24° 95.16° Asphalt 0 ft / 0 m 0 ft / 0 m
28 164 ft / 50 m 8,523 ft / 2,598 m 278.27° 275.19° Asphalt 656 ft / 200 m 0 ft / 0 m

EDDM

Details ICAO EDDM (MUC)
Name Muenchen Franz-Josef Strauss
Region Germany - Civil
Timezone Europe/Berlin (UTC+2.0)
Stats Elevation 1,487 ft / 453 m (AMSL)
Location 48.353786° 11.786117°
Runways 2
Magnetic Variation 3.214° E

METAR

EDDM 201920Z 07004KT CAVOK 17/08 Q1018 NOSIG

Decode

TAF

TAF EDDM 201700Z 2018/2124 08007KT CAVOK

Decode

Destination Runways

ID Width Length Bearing (true) Bearing (mag) Surface Threshold Offset Overrun Length
08L 197 ft / 60 m 13,086 ft / 3,989 m 83.38° 80.17° Concrete 0 ft / 0 m 0 ft / 0 m
08R 197 ft / 60 m 13,086 ft / 3,989 m 83.37° 80.16° Concrete 0 ft / 0 m 0 ft / 0 m
26L 197 ft / 60 m 13,086 ft / 3,989 m 263.41° 260.20° Concrete 0 ft / 0 m 0 ft / 0 m
26R 197 ft / 60 m 13,086 ft / 3,989 m 263.42° 260.21° Concrete 0 ft / 0 m 0 ft / 0 m

Approach Navaids

Runway Type Ident Frequency Range Bearing (true) Bearing (mag) Slope Elevation
08L Localiser IMNE 109.50 MHz 18 nm / 33 km 83.42° 80.21° - 1,449 ft / 442 m (AMSL)
08L Glidescope IMNE 109.50 MHz 15 nm / 28 km 83.40° 80.19° 3.00° 1,487 ft / 453 m (AMSL)
08R Localiser IMSE 109.30 MHz 18 nm / 33 km 83.43° 80.22° - 1,470 ft / 448 m (AMSL)
08R Glidescope IMSE 109.30 MHz 10 nm / 19 km 83.39° 80.18° 3.00° 1,487 ft / 453 m (AMSL)
26L Localiser IMSW 108.30 MHz 18 nm / 33 km 263.35° 260.13° - 1,486 ft / 453 m (AMSL)
26L Glidescope IMSW 108.30 MHz 10 nm / 19 km 263.39° 260.18° 3.00° 1,487 ft / 453 m (AMSL)
26R Localiser IMNW 108.70 MHz 18 nm / 33 km 263.38° 260.17° - 1,467 ft / 447 m (AMSL)
26R Glidescope IMNW 108.70 MHz 15 nm / 28 km 263.40° 260.19° 3.00° 1,487 ft / 453 m (AMSL)

Popular Alternatives